Time;durP1;ratioP1;P1;durP2;ratioP2;P2;SDS_P1;SDS_P2;PMS_P1;PMS_P2;Temp;Humidity;BMP_temperature;BMP_pressure;BME280_temperature;BME280_humidity;BME280_pressure;Samples;Min_cycle;Max_cycle;Signal;HPM_P1;HPM_P2
2022/02/18 00:02:22;;;;;;;19.55;9.52;;;;;;;1.98;79.33;96138.91;5086370;28;20060;-73
2022/02/18 00:04:48;;;;;;;21.73;9.70;;;;;;;1.98;79.47;96173.94;5085020;28;20139;-73
2022/02/18 00:07:14;;;;;;;22.38;9.95;;;;;;;2.00;79.36;96155.56;5081800;28;20142;-73
2022/02/18 00:09:42;;;;;;;25.17;10.82;;;;;;;1.99;79.23;96156.66;5102841;28;20048;-72
2022/02/18 00:12:10;;;;;;;23.70;10.23;;;;;;;2.00;79.29;96179.03;5084130;28;20131;-73
2022/02/18 00:14:36;;;;;;;25.10;10.60;;;;;;;2.01;79.37;96165.25;5059536;28;20071;-73
2022/02/18 00:17:03;;;;;;;26.88;9.38;;;;;;;2.00;79.23;96157.47;5087736;28;20048;-72
2022/02/18 00:19:30;;;;;;;23.08;10.25;;;;;;;2.03;79.17;96173.03;5081333;28;20052;-73
2022/02/18 00:21:56;;;;;;;22.43;10.43;;;;;;;2.04;79.23;96180.81;5085614;28;20139;-73
2022/02/18 00:24:22;;;;;;;32.10;10.77;;;;;;;2.02;79.39;96163.34;5076791;28;20044;-73
2022/02/18 00:26:48;;;;;;;22.30;10.15;;;;;;;2.00;79.42;96150.19;5087099;28;20071;-73
2022/02/18 00:29:14;;;;;;;21.85;10.85;;;;;;;2.05;79.19;96174.31;5077037;28;20044;-73
2022/02/18 00:31:40;;;;;;;20.63;10.18;;;;;;;2.04;79.39;96145.78;5100347;28;20056;-73
2022/02/18 00:34:07;;;;;;;22.75;11.00;;;;;;;2.09;79.18;96150.22;5062023;28;20533;-72
2022/02/18 00:36:34;;;;;;;29.17;11.05;;;;;;;2.10;79.13;96159.91;5084107;28;20052;-73
2022/02/18 00:38:59;;;;;;;24.50;11.27;;;;;;;2.06;79.32;96167.03;5081088;28;20135;-73
2022/02/18 00:41:26;;;;;;;24.38;11.25;;;;;;;2.05;79.44;96150.06;5087924;28;20495;-73
2022/02/18 00:43:52;;;;;;;28.65;11.57;;;;;;;2.05;79.34;96139.28;5085954;28;20135;-74
2022/02/18 00:46:18;;;;;;;26.67;12.00;;;;;;;2.09;79.41;96156.44;5082229;28;20160;-73
2022/02/18 00:48:44;;;;;;;25.05;11.00;;;;;;;2.06;79.41;96143.56;5080925;28;20143;-72
2022/02/18 00:51:11;;;;;;;22.02;10.95;;;;;;;2.11;79.46;96150.75;5081116;28;20048;-71
2022/02/18 00:53:38;;;;;;;23.35;11.00;;;;;;;2.10;79.40;96143.72;5080264;28;20403;-70
2022/02/18 00:56:05;;;;;;;22.83;10.95;;;;;;;2.11;79.29;96161.53;5086853;28;20117;-72
2022/02/18 00:58:31;;;;;;;22.77;10.77;;;;;;;2.07;79.53;96161.34;5084841;28;20106;-72
2022/02/18 01:00:57;;;;;;;21.40;10.55;;;;;;;2.11;79.56;96153.44;5088835;28;20059;-73
2022/02/18 01:03:23;;;;;;;23.50;10.88;;;;;;;2.06;79.57;96172.41;5063406;28;20067;-73
2022/02/18 01:05:51;;;;;;;19.90;9.90;;;;;;;2.10;79.58;96168.78;5083254;28;20500;-72
2022/02/18 01:08:17;;;;;;;23.38;10.25;;;;;;;2.04;79.77;96156.56;5080470;28;20055;-72
2022/02/18 01:10:44;;;;;;;20.98;10.80;;;;;;;2.02;79.71;96172.22;5079946;28;20048;-72
2022/02/18 01:13:10;;;;;;;22.83;10.70;;;;;;;2.08;79.63;96168.31;5089398;28;20040;-72
2022/02/18 01:15:36;;;;;;;19.65;9.70;;;;;;;2.10;79.67;96176.06;5080287;28;20086;-72
2022/02/18 01:18:04;;;;;;;24.00;11.20;;;;;;;2.12;79.40;96180.06;5100217;28;20043;-71
2022/02/18 01:20:30;;;;;;;24.00;10.52;;;;;;;2.11;79.60;96170.38;5066683;28;20503;-72
2022/02/18 01:22:56;;;;;;;23.20;11.05;;;;;;;2.11;79.63;96164.22;5084503;28;20054;-72
2022/02/18 01:25:22;;;;;;;21.77;10.65;;;;;;;2.12;79.42;96171.97;5080688;28;20048;-72
2022/02/18 01:27:55;;;;;;;22.27;10.60;;;;;;;2.14;79.54;96152.81;5084094;28;20097;-73
2022/02/18 01:30:23;;;;;;;22.08;11.05;;;;;;;2.15;79.42;96175.97;5086550;28;20062;-74
2022/02/18 01:32:50;;;;;;;25.02;11.30;;;;;;;2.13;79.55;96197.81;5086256;28;20068;-73
2022/02/18 01:35:17;;;;;;;24.52;11.30;;;;;;;2.17;79.37;96172.94;5088919;28;20414;-73
2022/02/18 01:37:44;;;;;;;25.08;10.50;;;;;;;2.15;79.57;96180.53;5082094;28;20138;-72
2022/02/18 01:40:11;;;;;;;23.88;10.25;;;;;;;2.19;79.70;96189.63;5081364;28;20155;-69
2022/02/18 01:42:38;;;;;;;22.60;10.10;;;;;;;2.18;79.42;96183.44;5085024;28;20040;-70
2022/02/18 01:45:06;;;;;;;24.67;11.38;;;;;;;2.16;79.31;96188.34;5084823;28;20427;-68
2022/02/18 01:47:32;;;;;;;25.92;10.75;;;;;;;2.16;79.36;96192.91;5075840;28;20044;-68
2022/02/18 01:49:58;;;;;;;23.95;11.43;;;;;;;2.17;79.40;96192.63;5090703;28;20150;-70
2022/02/18 01:52:27;;;;;;;25.40;11.32;;;;;;;2.21;79.47;96192.81;5086062;28;20060;-70
2022/02/18 01:54:53;;;;;;;25.13;11.13;;;;;;;2.20;79.48;96185.81;5089864;28;20054;-69
2022/02/18 01:57:20;;;;;;;22.92;11.45;;;;;;;2.08;79.11;96170.19;5106859;28;20055;-69
2022/02/18 01:59:46;;;;;;;23.10;10.75;;;;;;;2.24;79.22;96186.78;5106032;28;20525;-70
2022/02/18 02:02:13;;;;;;;24.33;11.00;;;;;;;2.24;79.21;96201.06;5086281;28;20062;-69
2022/02/18 02:04:39;;;;;;;24.77;12.10;;;;;;;2.26;78.95;96201.56;5099451;28;20050;-69
2022/02/18 02:07:10;;;;;;;24.80;10.70;;;;;;;2.25;79.09;96183.78;5101476;28;20340;-70
2022/02/18 02:09:39;;;;;;;20.45;10.50;;;;;;;2.18;79.36;96190.69;5071879;28;20182;-69
2022/02/18 02:12:06;;;;;;;26.45;11.38;;;;;;;2.22;79.40;96197.88;5088063;28;20055;-69
2022/02/18 02:14:39;;;;;;;29.02;12.00;;;;;;;2.22;79.46;96194.41;5084231;28;20052;-69
2022/02/18 02:17:05;;;;;;;23.92;11.85;;;;;;;2.23;79.59;96196.00;5088950;28;20048;-69
2022/02/18 02:19:32;;;;;;;26.83;11.18;;;;;;;2.26;79.47;96214.22;5068809;28;20059;-70
2022/02/18 02:21:59;;;;;;;23.65;10.93;;;;;;;2.28;79.36;96212.03;5081043;28;20056;-68
2022/02/18 02:24:26;;;;;;;24.15;11.25;;;;;;;2.29;79.39;96212.84;5102807;28;20044;-70
2022/02/18 02:26:52;;;;;;;24.83;11.18;;;;;;;2.25;79.45;96199.16;5083984;28;20148;-69
2022/02/18 02:29:20;;;;;;;24.80;11.10;;;;;;;2.26;79.47;96200.75;5088022;28;20163;-69
2022/02/18 02:31:49;;;;;;;24.88;10.98;;;;;;;2.24;79.92;96209.13;5087732;28;20044;-69
2022/02/18 02:34:15;;;;;;;28.55;12.05;;;;;;;2.25;79.81;96210.72;5103372;28;20087;-69
2022/02/18 02:36:43;;;;;;;29.83;11.85;;;;;;;2.23;79.80;96220.25;5101679;28;20063;-70
2022/02/18 02:39:10;;;;;;;26.63;12.80;;;;;;;2.28;79.84;96216.63;5086297;28;20069;-69
2022/02/18 02:41:38;;;;;;;;;;;;;;;2.21;79.96;96241.34;5083363;28;20040;-69
2022/02/18 02:44:06;;;;;;;25.60;12.05;;;;;;;2.21;80.00;96234.03;5084924;28;19971;-69
2022/02/18 02:46:35;;;;;;;27.55;11.60;;;;;;;2.22;80.30;96227.53;5087296;28;20043;-70
2022/02/18 02:49:04;;;;;;;29.75;12.90;;;;;;;2.20;80.16;96218.16;5087011;28;20048;-72
2022/02/18 02:51:31;;;;;;;27.10;11.90;;;;;;;2.17;80.40;96229.53;5076208;28;20057;-72
2022/02/18 02:53:58;;;;;;;28.83;12.32;;;;;;;2.21;80.47;96250.19;5076023;28;20079;-73
2022/02/18 02:56:25;;;;;;;29.05;12.25;;;;;;;2.22;80.35;96243.69;5061583;28;20113;-73
2022/02/18 02:58:52;;;;;;;27.80;12.07;;;;;;;2.20;80.21;96231.66;5080157;28;20079;-72
2022/02/18 03:01:27;;;;;;;26.98;12.27;;;;;;;2.19;80.21;96230.84;5082865;28;20340;-70
2022/02/18 03:03:53;;;;;;;26.10;11.80;;;;;;;2.21;80.43;96246.72;5095453;28;20048;-71
2022/02/18 03:06:21;;;;;;;28.75;11.80;;;;;;;2.21;80.22;96252.13;5097443;28;20579;-70
2022/02/18 03:08:48;;;;;;;28.23;12.07;;;;;;;2.18;80.39;96236.53;5101817;28;20078;-71
2022/02/18 03:11:38;;;;;;;25.95;11.82;;;;;;;2.22;80.42;96251.78;5102316;28;20502;-71
2022/02/18 03:14:21;;;;;;;27.50;12.05;;;;;;;2.21;80.18;96244.03;5086143;28;20048;-70
2022/02/18 03:17:03;;;;;;;27.20;12.10;;;;;;;2.19;80.31;96265.09;5087592;28;20124;-69
2022/02/18 03:19:29;;;;;;;34.05;12.75;;;;;;;2.17;80.12;96262.69;5076222;28;20099;-71
2022/02/18 03:21:56;;;;;;;29.50;12.55;;;;;;;2.15;80.42;96247.94;5100583;28;20055;-70
2022/02/18 03:24:23;;;;;;;26.77;11.38;;;;;;;2.14;80.33;96252.53;5079738;28;20044;-70
2022/02/18 03:26:51;;;;;;;23.33;11.13;;;;;;;2.16;80.20;96258.41;5076512;28;20110;-70
2022/02/18 03:29:18;;;;;;;25.10;11.27;;;;;;;2.17;80.16;96265.41;5103671;28;20052;-72
2022/02/18 03:32:03;;;;;;;32.00;11.23;;;;;;;2.16;80.14;96261.13;5103565;27;20044;-71
2022/02/18 03:34:31;;;;;;;23.65;10.95;;;;;;;2.13;80.25;96238.25;5096655;28;20051;-72
2022/02/18 03:36:58;;;;;;;30.95;11.98;;;;;;;2.15;80.10;96245.22;5079669;28;20056;-72
2022/02/18 03:39:27;;;;;;;26.85;12.00;;;;;;;2.15;80.22;96278.38;5085611;28;20051;-72
2022/02/18 03:41:53;;;;;;;30.15;12.38;;;;;;;2.19;80.09;96265.09;5102182;28;20048;-69
2022/02/18 03:44:19;;;;;;;28.35;12.70;;;;;;;2.01;80.21;96240.69;5067532;28;20363;-70
2022/02/18 03:47:04;;;;;;;29.45;12.77;;;;;;;2.16;80.24;96260.31;5069618;28;20045;-71
2022/02/18 03:49:31;;;;;;;27.50;13.15;;;;;;;2.15;80.12;96253.31;5072574;28;20048;-67
2022/02/18 03:51:57;;;;;;;29.73;12.07;;;;;;;2.18;79.97;96274.25;5082035;28;20162;-67
2022/02/18 03:54:26;;;;;;;35.00;11.88;;;;;;;2.23;80.04;96263.38;5080539;28;20044;-67
2022/02/18 03:56:53;;;;;;;31.98;13.32;;;;;;;2.24;80.20;96287.31;5081905;28;20036;-69
2022/02/18 03:59:20;;;;;;;30.38;14.02;;;;;;;2.23;79.96;96276.84;5064038;28;20481;-68
2022/02/18 04:01:49;;;;;;;31.80;14.18;;;;;;;2.01;80.34;96264.94;5097872;28;20055;-69
2022/02/18 04:04:18;;;;;;;36.00;14.63;;;;;;;2.12;80.69;96279.00;5078413;28;20102;-68
2022/02/18 04:06:50;;;;;;;32.97;14.32;;;;;;;2.13;80.40;96299.47;5098972;28;20051;-67
2022/02/18 04:09:26;;;;;;;31.20;14.95;;;;;;;2.14;80.46;96292.97;5097933;28;20480;-68
2022/02/18 04:11:57;;;;;;;32.80;14.02;;;;;;;2.19;80.69;96284.75;5079728;28;20048;-68
2022/02/18 04:14:26;;;;;;;34.28;14.88;;;;;;;2.19;80.34;96282.06;5094597;28;20101;-69
2022/02/18 04:17:01;;;;;;;39.13;16.52;;;;;;;2.18;80.58;96312.00;5098535;28;20174;-69
2022/02/18 04:19:30;;;;;;;39.08;16.52;;;;;;;2.17;80.59;96278.88;5082668;28;20048;-70
2022/02/18 04:21:57;;;;;;;36.42;14.88;;;;;;;2.02;80.66;96277.31;5073590;28;20120;-70
2022/02/18 04:24:38;;;;;;;47.38;16.63;;;;;;;2.22;80.67;96296.84;5065042;28;20044;-70
2022/02/18 04:27:05;;;;;;;38.53;16.33;;;;;;;2.21;80.62;96298.72;5088286;28;20050;-70
2022/02/18 04:29:33;;;;;;;34.55;16.13;;;;;;;2.21;80.76;96303.31;5100592;28;20053;-70
2022/02/18 04:31:59;;;;;;;38.42;17.55;;;;;;;2.10;80.97;96283.88;5083443;28;20055;-70
2022/02/18 04:34:25;;;;;;;40.28;18.38;;;;;;;2.18;80.78;96323.59;5085681;28;20077;-69
2022/02/18 04:36:52;;;;;;;42.70;17.77;;;;;;;2.19;81.10;96316.31;5090115;28;20101;-68
2022/02/18 04:39:17;;;;;;;47.85;18.48;;;;;;;2.13;81.24;96316.41;5080748;28;20044;-68
2022/02/18 04:41:44;;;;;;;45.17;17.48;;;;;;;2.15;81.34;96318.00;5084121;28;20071;-68
2022/02/18 04:44:10;;;;;;;41.60;16.23;;;;;;;2.19;81.04;96319.00;5091478;28;20113;-69
2022/02/18 04:46:37;;;;;;;38.25;15.65;;;;;;;2.17;81.25;96326.59;5089919;28;20044;-68
2022/02/18 04:49:03;;;;;;;41.45;17.38;;;;;;;2.20;81.29;96324.09;5088552;28;20135;-69
2022/02/18 04:51:29;;;;;;;47.92;18.75;;;;;;;2.23;81.17;96306.50;5092111;28;20084;-69
2022/02/18 04:53:58;;;;;;;40.42;17.88;;;;;;;2.19;81.19;96324.41;5090455;28;20044;-68
2022/02/18 04:56:24;;;;;;;45.35;16.83;;;;;;;2.16;81.18;96314.22;5090303;28;20044;-68
2022/02/18 04:58:50;;;;;;;47.90;18.42;;;;;;;2.14;81.31;96336.09;5055244;28;20138;-69
2022/02/18 05:01:16;;;;;;;43.30;17.60;;;;;;;2.19;81.30;96335.97;5090199;28;20135;-68
2022/02/18 05:03:42;;;;;;;41.40;17.77;;;;;;;2.13;81.40;96342.59;5087985;28;20074;-69
2022/02/18 05:06:09;;;;;;;40.17;17.63;;;;;;;2.10;81.50;96330.50;5087353;28;20055;-68
2022/02/18 05:08:36;;;;;;;39.25;17.02;;;;;;;2.16;81.70;96322.28;5089411;28;20044;-69
2022/02/18 05:11:03;;;;;;;51.83;18.30;;;;;;;2.19;81.45;96332.50;5091217;28;20052;-71
2022/02/18 05:13:29;;;;;;;43.70;17.48;;;;;;;2.15;81.49;96316.13;5088590;28;20130;-71
2022/02/18 05:15:55;;;;;;;43.55;16.73;;;;;;;2.17;81.42;96330.09;5091281;28;20123;-70
2022/02/18 05:18:21;;;;;;;40.65;18.02;;;;;;;2.18;81.57;96339.78;5088460;28;20052;-70
2022/02/18 05:20:48;;;;;;;42.73;19.23;;;;;;;2.16;81.33;96338.47;5091975;28;20569;-71
2022/02/18 05:23:15;;;;;;;46.65;19.73;;;;;;;2.23;81.14;96350.44;5089219;28;20366;-72
2022/02/18 05:25:42;;;;;;;40.95;17.42;;;;;;;2.19;81.26;96335.19;5091686;28;20500;-71
2022/02/18 05:28:08;;;;;;;39.15;16.75;;;;;;;2.17;81.37;96340.88;5090216;28;20095;-71
2022/02/18 05:30:34;;;;;;;35.23;15.73;;;;;;;2.21;81.38;96332.97;5105282;28;20059;-71
2022/02/18 05:33:01;;;;;;;42.58;17.67;;;;;;;2.24;81.20;96349.31;5090780;28;20310;-72
2022/02/18 05:35:27;;;;;;;43.30;17.20;;;;;;;2.15;81.10;96355.75;5092526;28;20079;-70
2022/02/18 05:37:53;;;;;;;38.72;16.98;;;;;;;2.24;81.23;96356.63;5090258;28;20504;-70
2022/02/18 05:40:19;;;;;;;32.35;15.68;;;;;;;2.23;81.04;96347.72;5089863;28;20573;-71
2022/02/18 05:42:45;;;;;;;37.90;14.95;;;;;;;2.26;80.92;96346.34;5108496;28;20531;-73
2022/02/18 05:45:14;;;;;;;37.33;16.85;;;;;;;2.18;80.67;96347.03;5101438;28;20052;-71
2022/02/18 05:47:42;;;;;;;33.22;14.18;;;;;;;2.13;81.13;96358.75;5089995;28;20071;-70
2022/02/18 05:50:13;;;;;;;35.55;14.85;;;;;;;2.21;80.75;96355.34;5088829;28;20105;-72
2022/02/18 05:52:41;;;;;;;38.72;15.63;;;;;;;2.27;80.94;96366.78;5086567;28;20044;-71
2022/02/18 05:55:08;;;;;;;33.78;13.95;;;;;;;2.15;80.77;96345.78;5079460;28;20496;-72
2022/02/18 05:57:34;;;;;;;40.30;14.93;;;;;;;2.20;80.76;96364.53;5101049;28;20471;-71
2022/02/18 06:00:01;;;;;;;34.05;14.20;;;;;;;2.26;80.85;96366.03;5072363;28;20512;-72
2022/02/18 06:02:39;;;;;;;33.33;13.80;;;;;;;2.28;80.53;96373.00;5076551;28;20071;-72
2022/02/18 06:05:07;;;;;;;35.70;15.68;;;;;;;2.29;80.41;96378.06;5089395;28;20048;-72
2022/02/18 06:07:33;;;;;;;31.10;13.48;;;;;;;2.30;80.39;96385.06;5085875;28;20148;-73
2022/02/18 06:10:00;;;;;;;34.35;14.60;;;;;;;2.24;80.33;96381.66;5089614;28;20036;-72
2022/02/18 06:12:26;;;;;;;35.40;14.68;;;;;;;2.30;80.46;96397.75;5078338;28;20419;-70
2022/02/18 06:14:53;;;;;;;38.05;13.35;;;;;;;2.26;80.45;96397.56;5041606;28;20318;-72
2022/02/18 06:17:19;;;;;;;32.88;13.60;;;;;;;2.29;80.38;96390.78;5099130;28;20097;-72
2022/02/18 06:19:46;;;;;;;36.30;14.70;;;;;;;2.27;80.31;96393.75;5079125;28;20040;-72
2022/02/18 06:22:12;;;;;;;35.65;13.57;;;;;;;2.26;80.40;96395.66;5103357;28;20057;-73
2022/02/18 06:24:39;;;;;;;28.98;13.40;;;;;;;2.25;80.51;96412.91;5079300;28;20055;-72
2022/02/18 06:27:06;;;;;;;40.90;13.20;;;;;;;2.29;80.45;96406.94;5063973;28;20052;-72
2022/02/18 06:29:32;;;;;;;28.75;12.85;;;;;;;2.27;80.46;96426.09;5080642;28;20048;-72
2022/02/18 06:31:58;;;;;;;31.38;12.93;;;;;;;2.32;80.39;96426.00;5083491;28;20072;-73
2022/02/18 06:34:24;;;;;;;27.98;13.20;;;;;;;2.27;80.22;96396.44;5081558;28;20063;-72
2022/02/18 06:36:51;;;;;;;30.33;13.38;;;;;;;2.39;80.33;96410.22;5082762;28;20070;-73
2022/02/18 06:39:18;;;;;;;37.10;13.82;;;;;;;2.37;80.25;96417.81;5078896;28;20047;-73
2022/02/18 06:41:44;;;;;;;27.55;13.38;;;;;;;2.40;80.30;96433.38;5079040;28;20412;-72
2022/02/18 06:44:10;;;;;;;26.45;12.15;;;;;;;2.35;80.16;96433.50;5100472;28;20047;-74
2022/02/18 06:46:36;;;;;;;31.40;12.60;;;;;;;2.40;80.15;96440.66;5084920;28;20063;-73
2022/02/18 06:49:03;;;;;;;30.27;12.80;;;;;;;2.40;79.85;96441.47;5100602;28;20152;-72
2022/02/18 06:51:29;;;;;;;28.48;13.60;;;;;;;2.41;80.07;96434.16;5076134;28;20055;-71
2022/02/18 06:53:56;;;;;;;31.98;13.23;;;;;;;2.43;80.08;96442.75;5085336;28;20067;-73
2022/02/18 06:56:22;;;;;;;34.55;13.77;;;;;;;2.50;79.92;96440.44;5082943;28;20060;-73
2022/02/18 06:58:48;;;;;;;32.15;13.07;;;;;;;2.47;79.82;96462.63;5080402;28;20504;-73
2022/02/18 07:01:14;;;;;;;28.75;11.35;;;;;;;2.48;79.87;96460.72;5080322;28;20146;-73
2022/02/18 07:03:40;;;;;;;31.10;12.75;;;;;;;2.44;80.03;96447.06;5086320;28;20143;-73
2022/02/18 07:06:07;;;;;;;31.98;13.15;;;;;;;2.40;80.14;96448.75;5081414;28;20056;-72
2022/02/18 07:08:34;;;;;;;38.45;13.85;;;;;;;2.47;80.01;96462.63;5082569;28;20044;-70
2022/02/18 07:11:00;;;;;;;32.00;13.45;;;;;;;2.49;79.85;96455.03;5079779;28;20392;-72
2022/02/18 07:13:27;;;;;;;31.53;12.80;;;;;;;2.46;79.94;96462.91;5086172;28;20126;-72
2022/02/18 07:15:55;;;;;;;32.17;13.75;;;;;;;2.44;80.10;96455.16;5081971;28;20305;-73
2022/02/18 07:18:21;;;;;;;30.63;13.13;;;;;;;2.45;80.03;96466.72;5060275;28;20522;-72
2022/02/18 07:20:47;;;;;;;31.35;12.45;;;;;;;2.44;79.84;96460.53;5080284;28;20052;-73
2022/02/18 07:23:14;;;;;;;32.83;13.38;;;;;;;2.44;79.95;96468.63;5078549;28;20044;-72
2022/02/18 07:25:40;;;;;;;39.20;14.35;;;;;;;2.47;80.10;96473.41;5086989;28;20052;-72
2022/02/18 07:28:07;;;;;;;36.50;13.32;;;;;;;2.50;79.87;96472.00;5077704;28;20063;-71
2022/02/18 07:30:33;;;;;;;34.97;14.27;;;;;;;2.48;79.85;96471.50;5090318;28;20082;-73
2022/02/18 07:32:59;;;;;;;35.45;13.93;;;;;;;2.52;79.84;96478.69;5105372;28;20048;-73
2022/02/18 07:35:32;;;;;;;36.45;13.27;;;;;;;2.45;80.01;96477.50;5084798;28;20040;-72
2022/02/18 07:38:00;;;;;;;35.28;14.13;;;;;;;2.51;79.96;96497.88;5088941;28;20040;-72
2022/02/18 07:40:26;;;;;;;27.15;13.05;;;;;;;2.54;80.15;96489.19;5087784;28;20044;-73
2022/02/18 07:42:52;;;;;;;36.97;13.18;;;;;;;2.59;80.08;96483.66;5092788;28;20059;-71
2022/02/18 07:45:19;;;;;;;31.90;12.75;;;;;;;2.62;79.70;96496.53;5111909;28;20040;-70
2022/02/18 07:47:51;;;;;;;27.40;12.48;;;;;;;2.59;79.75;96497.16;5089043;28;20146;-71
2022/02/18 07:50:17;;;;;;;27.42;11.80;;;;;;;2.55;79.97;96521.22;5082987;28;20055;-70
2022/02/18 07:52:43;;;;;;;32.72;11.95;;;;;;;2.50;79.81;96507.84;5085695;28;20040;-71
2022/02/18 07:55:10;;;;;;;25.95;12.45;;;;;;;2.50;80.10;96494.38;5070742;28;20143;-70
2022/02/18 07:57:36;;;;;;;28.98;12.48;;;;;;;2.51;79.96;96512.16;5088863;28;20292;-70
2022/02/18 08:00:05;;;;;;;27.35;12.07;;;;;;;2.52;79.75;96529.94;5105308;28;20150;-69
2022/02/18 08:02:39;;;;;;;24.23;11.43;;;;;;;2.60;79.77;96525.72;5078530;28;20135;-71
2022/02/18 08:05:06;;;;;;;29.00;12.57;;;;;;;2.54;79.95;96540.44;5062693;28;20049;-70
2022/02/18 08:07:32;;;;;;;33.83;13.52;;;;;;;2.53;79.98;96542.31;5107755;28;20139;-70
2022/02/18 08:09:58;;;;;;;33.20;14.07;;;;;;;2.53;80.06;96545.00;5082572;28;20048;-71
2022/02/18 08:12:24;;;;;;;35.13;15.45;;;;;;;2.57;80.06;96557.88;5093154;28;20055;-71
2022/02/18 08:14:53;;;;;;;34.22;15.70;;;;;;;2.64;80.07;96564.47;5081305;28;20727;-70
2022/02/18 08:17:19;;;;;;;42.25;18.08;;;;;;;2.71;79.99;96572.16;5088270;28;20071;-71
2022/02/18 08:19:46;;;;;;;29.58;14.70;;;;;;;2.79;79.63;96573.34;5092056;28;20581;-69
2022/02/18 08:22:13;;;;;;;31.77;12.05;;;;;;;2.83;79.31;96574.34;5093267;28;20526;-69
2022/02/18 08:24:40;;;;;;;35.97;12.38;;;;;;;2.91;79.05;96579.03;5089784;28;20146;-69
2022/02/18 08:27:07;;;;;;;30.95;11.63;;;;;;;3.00;78.39;96581.00;5093388;28;20055;-69
2022/02/18 08:29:33;;;;;;;28.42;11.18;;;;;;;3.04;78.14;96603.59;5092473;28;20048;-68
2022/02/18 08:31:59;;;;;;;26.48;7.75;;;;;;;3.05;77.65;96602.50;5092027;28;20462;-70
2022/02/18 08:34:26;;;;;;;26.55;10.35;;;;;;;3.08;77.53;96597.28;5092157;28;20044;-71
2022/02/18 08:36:52;;;;;;;32.03;13.13;;;;;;;3.17;77.16;96593.84;5108523;28;20048;-70
2022/02/18 08:39:19;;;;;;;42.33;14.93;;;;;;;3.32;76.68;96609.69;5091212;28;20044;-71
2022/02/18 08:41:46;;;;;;;32.20;11.48;;;;;;;3.33;76.39;96605.91;5093396;28;20044;-70
2022/02/18 08:44:14;;;;;;;29.80;13.05;;;;;;;3.37;76.05;96606.09;5088929;28;20222;-70
2022/02/18 08:46:41;;;;;;;36.40;13.27;;;;;;;3.51;75.81;96609.53;5084273;28;20052;-70
2022/02/18 08:49:07;;;;;;;32.97;12.20;;;;;;;3.61;75.36;96611.19;5091577;28;20097;-69
2022/02/18 08:51:37;;;;;;;42.00;11.90;;;;;;;3.72;75.05;96619.06;5089743;28;20118;-70
2022/02/18 08:54:05;;;;;;;34.58;13.18;;;;;;;3.69;74.90;96626.69;5091025;28;20063;-69
2022/02/18 08:56:33;;;;;;;26.10;9.90;;;;;;;3.73;74.62;96626.84;5090967;28;20048;-69
2022/02/18 08:58:59;;;;;;;29.20;9.05;;;;;;;3.74;74.44;96631.16;5080148;28;20083;-70
2022/02/18 09:01:26;;;;;;;27.27;7.72;;;;;;;3.75;74.04;96635.47;5099850;28;20575;-71
2022/02/18 09:03:52;;;;;;;26.63;9.00;;;;;;;3.80;73.95;96637.22;5100542;28;20149;-68
2022/02/18 09:06:18;;;;;;;30.63;8.70;;;;;;;3.88;73.43;96641.91;5087495;28;20040;-67
2022/02/18 09:08:44;;;;;;;20.60;7.20;;;;;;;3.69;73.01;96618.56;5089870;28;20555;-68
2022/02/18 09:11:11;;;;;;;19.10;6.10;;;;;;;3.86;72.50;96651.41;5104847;28;20055;-69
2022/02/18 09:13:39;;;;;;;16.05;5.07;;;;;;;3.90;72.37;96646.97;5072533;28;20083;-69
2022/02/18 09:16:05;;;;;;;11.77;4.47;;;;;;;4.12;71.85;96648.88;5071362;28;20071;-67
2022/02/18 09:18:40;;;;;;;15.15;5.18;;;;;;;4.33;71.63;96653.78;5072901;28;20037;-67
2022/02/18 09:21:07;;;;;;;12.82;4.15;;;;;;;4.56;71.04;96659.94;5091041;28;20151;-69
2022/02/18 09:23:33;;;;;;;18.58;4.60;;;;;;;4.82;70.31;96661.91;5092652;28;20101;-69
2022/02/18 09:26:00;;;;;;;12.05;3.83;;;;;;;4.90;69.93;96665.75;5092590;28;20056;-68
2022/02/18 09:28:28;;;;;;;11.07;4.15;;;;;;;5.01;69.28;96675.19;5088627;28;20051;-69
2022/02/18 09:30:55;;;;;;;14.60;4.47;;;;;;;5.07;69.20;96660.41;5060480;28;20456;-68
2022/02/18 09:33:23;;;;;;;15.55;4.75;;;;;;;5.23;68.17;96660.75;5080119;28;20131;-68
2022/02/18 09:35:49;;;;;;;15.73;5.38;;;;;;;5.24;68.04;96673.16;5088982;28;20052;-68
2022/02/18 09:38:16;;;;;;;11.77;4.60;;;;;;;5.32;67.72;96668.88;5098156;28;20512;-68
2022/02/18 09:40:42;;;;;;;14.80;4.75;;;;;;;5.30;67.85;96678.44;5091621;28;20071;-68
2022/02/18 09:43:09;;;;;;;14.40;3.90;;;;;;;5.22;67.89;96688.13;5092275;28;20063;-68
2022/02/18 09:45:36;;;;;;;10.88;3.90;;;;;;;4.99;67.55;96693.66;5107950;28;20048;-70
2022/02/18 09:48:03;;;;;;;14.07;4.57;;;;;;;5.01;67.79;96694.16;5090644;28;20040;-69
2022/02/18 09:50:30;;;;;;;8.60;3.55;;;;;;;4.86;66.74;96702.69;5092210;28;20048;-70
2022/02/18 09:52:57;;;;;;;15.13;3.72;;;;;;;4.84;67.25;96700.31;5090998;28;20120;-70
2022/02/18 09:55:23;;;;;;;10.95;3.60;;;;;;;4.65;66.97;96714.09;5092049;28;20052;-69
2022/02/18 09:57:53;;;;;;;9.43;3.35;;;;;;;4.50;66.84;96723.38;5091525;28;20047;-69
2022/02/18 10:00:21;;;;;;;10.13;3.63;;;;;;;4.39;67.11;96720.97;5092054;28;20093;-71
2022/02/18 10:02:51;;;;;;;10.73;3.53;;;;;;;4.31;67.14;96719.00;5085326;28;20072;-69
2022/02/18 10:05:17;;;;;;;;;;;;;;;4.16;67.22;96733.72;5084964;28;20077;-69
2022/02/18 10:08:06;;;;;;;9.93;3.30;;;;;;;4.07;67.63;96736.34;5107078;28;19924;-70
2022/02/18 10:10:34;;;;;;;12.23;3.45;;;;;;;3.91;68.03;96737.81;5092053;28;20140;-69
2022/02/18 10:13:01;;;;;;;9.68;3.00;;;;;;;3.91;68.12;96740.53;5073834;28;20094;-70
2022/02/18 10:15:43;;;;;;;11.50;3.47;;;;;;;4.06;68.06;96742.88;5090549;28;20051;-69
2022/02/18 10:18:11;;;;;;;11.95;3.80;;;;;;;4.16;67.60;96738.31;5090734;28;20197;-68
2022/02/18 10:20:42;;;;;;;8.57;3.20;;;;;;;4.66;66.47;96745.44;5091376;28;20105;-76
2022/02/18 10:23:09;;;;;;;9.98;3.00;;;;;;;5.15;65.29;96750.09;5079473;28;20052;-76
2022/02/18 10:25:37;;;;;;;9.90;3.17;;;;;;;5.75;64.23;96761.41;5073312;28;20480;-74
2022/02/18 10:28:06;;;;;;;9.57;3.20;;;;;;;6.36;62.98;96747.84;5086364;28;20040;-76
2022/02/18 10:30:33;;;;;;;8.13;2.97;;;;;;;6.94;61.34;96757.59;5074931;28;20066;-76
2022/02/18 10:33:11;;;;;;;12.13;3.37;;;;;;;7.29;60.67;96760.19;5091482;28;20056;-76
2022/02/18 10:35:38;;;;;;;10.77;3.15;;;;;;;7.20;60.63;96762.94;5073516;28;20131;-76
2022/02/18 10:38:06;;;;;;;10.18;3.00;;;;;;;6.91;61.05;96769.13;5090292;28;20041;-76
2022/02/18 10:40:39;;;;;;;;;;;;;;;6.61;61.13;96779.91;5072610;28;20040;-74
2022/02/18 10:43:10;;;;;;;11.27;3.05;;;;;;;6.19;61.67;96770.38;5087514;28;19923;-73
2022/02/18 10:45:50;;;;;;;9.80;3.15;;;;;;;6.06;61.23;96782.97;5091221;28;20048;-76
2022/02/18 10:48:20;;;;;;;11.82;3.45;;;;;;;5.82;62.34;96805.09;5090602;28;20533;-73
2022/02/18 10:51:04;;;;;;;10.95;3.33;;;;;;;5.61;61.48;96818.44;5091316;28;20052;-73
2022/02/18 10:53:35;;;;;;;13.00;2.00;;;;;;;5.52;61.90;96813.00;5089741;28;20040;-73
2022/02/18 10:56:08;;;;;;;10.82;2.53;;;;;;;5.34;61.58;96823.00;5089839;28;20051;-73
2022/02/18 10:58:38;;;;;;;8.43;2.55;;;;;;;5.16;61.42;96835.69;5091121;28;20106;-73
2022/02/18 11:01:07;;;;;;;13.18;3.63;;;;;;;5.02;61.35;96843.91;5091476;28;20587;-73
2022/02/18 11:03:35;;;;;;;12.93;3.85;;;;;;;4.88;61.22;96844.78;5086100;28;20139;-74
2022/02/18 11:06:14;;;;;;;15.07;4.47;;;;;;;4.75;60.50;96851.06;5090282;28;20219;-73
2022/02/18 11:08:47;;;;;;;15.25;3.05;;;;;;;4.71;60.59;96848.16;5089779;28;20048;-72
2022/02/18 11:11:13;;;;;;;11.52;2.67;;;;;;;4.69;60.53;96853.09;5089001;28;20048;-73
2022/02/18 11:13:40;;;;;;;12.25;3.08;;;;;;;4.76;60.62;96861.59;5090744;28;20576;-72
2022/02/18 11:16:09;;;;;;;13.25;3.50;;;;;;;4.71;60.31;96864.41;5090152;28;20223;-72
2022/02/18 11:18:38;;;;;;;17.10;4.32;;;;;;;4.84;60.30;96857.34;5071718;28;20420;-72
2022/02/18 11:21:08;;;;;;;16.58;4.57;;;;;;;4.94;60.24;96859.78;5102621;28;20044;-72
2022/02/18 11:23:34;;;;;;;17.95;4.22;;;;;;;4.90;60.33;96866.94;5086810;28;20043;-73
2022/02/18 11:26:02;;;;;;;16.05;5.60;;;;;;;4.79;60.31;96847.44;5090555;28;20061;-73
2022/02/18 11:28:28;;;;;;;19.77;6.95;;;;;;;4.99;59.76;96871.56;5090321;28;20059;-75
2022/02/18 11:30:57;;;;;;;15.55;5.10;;;;;;;4.87;59.79;96864.03;5089178;28;20148;-72
2022/02/18 11:33:40;;;;;;;13.68;4.40;;;;;;;4.88;59.64;96874.56;5109926;28;20094;-73